createdAt,value
2017-06-02T00:00:08.454Z,59.3
2017-06-02T00:00:49.354Z,59.01
2017-06-02T00:01:30.236Z,59.11
2017-06-02T00:02:11.125Z,58.81
2017-06-02T00:02:52.029Z,58.44
2017-06-02T00:03:32.926Z,59.01
2017-06-02T00:04:13.829Z,59.39
2017-06-02T00:04:54.728Z,59.11
2017-06-02T00:05:35.613Z,58.91
2017-06-02T00:06:16.508Z,59.11
2017-06-02T00:06:57.409Z,58.91
2017-06-02T00:07:38.301Z,58.81
2017-06-02T00:08:19.200Z,58.81
2017-06-02T00:09:00.088Z,58.62
2017-06-02T00:09:40.979Z,58.44
2017-06-02T00:10:21.875Z,58.53
2017-06-02T00:11:02.761Z,59.2
2017-06-02T00:11:43.651Z,59.11
2017-06-02T00:12:24.550Z,58.81
2017-06-02T00:13:05.440Z,59.2
2017-06-02T00:13:46.333Z,59.58
2017-06-02T00:14:27.223Z,58.91
2017-06-02T00:15:08.123Z,59.2
2017-06-02T00:15:49.011Z,59.68
2017-06-02T00:16:29.901Z,59.48
2017-06-02T00:17:10.787Z,59.2
2017-06-02T00:17:51.685Z,59.2
2017-06-02T00:18:32.600Z,59.3
2017-06-02T00:19:13.482Z,59.2
2017-06-02T00:19:54.378Z,58.53
2017-06-02T00:20:35.274Z,59.2
2017-06-02T00:21:16.163Z,59.2
2017-06-02T00:21:57.071Z,58.91
2017-06-02T00:22:37.954Z,58.62
2017-06-02T00:23:18.838Z,59.01
2017-06-02T00:23:59.740Z,59.39
2017-06-02T00:24:40.631Z,58.91
2017-06-02T00:25:21.514Z,59.01
2017-06-02T00:26:02.413Z,59.11
2017-06-02T00:26:43.302Z,58.34
2017-06-02T00:27:24.193Z,59.3
2017-06-02T00:28:05.091Z,58.91
2017-06-02T00:28:45.980Z,58.53
2017-06-02T00:29:26.875Z,59.3
2017-06-02T00:30:07.773Z,59.58
2017-06-02T00:30:48.661Z,59.87
2017-06-02T00:31:29.550Z,59.77
2017-06-02T00:32:10.449Z,59.97
2017-06-02T00:32:51.382Z,59.97
2017-06-02T00:33:32.225Z,59.97
2017-06-02T00:34:13.124Z,60.13
2017-06-02T00:34:54.015Z,60.25
2017-06-02T00:35:34.917Z,61.11
2017-06-02T00:36:15.811Z,60.99
2017-06-02T00:36:56.698Z,60.51
2017-06-02T00:37:37.597Z,61.28
2017-06-02T00:38:18.487Z,60.8
2017-06-02T00:38:59.376Z,60.99
2017-06-02T00:39:40.260Z,60.99
2017-06-02T00:40:21.162Z,60.73
2017-06-02T00:41:02.043Z,60.61
2017-06-02T00:41:42.977Z,60.41
2017-06-02T00:42:23.854Z,60.41
2017-06-02T00:43:04.756Z,60.83
2017-06-02T00:43:45.646Z,60.35
2017-06-02T00:44:26.516Z,60.06
2017-06-02T00:45:07.391Z,61.31
2017-06-02T00:45:48.269Z,61.66
2017-06-02T00:46:29.162Z,61.37
2017-06-02T00:47:10.049Z,61.18
2017-06-02T00:47:50.949Z,61.4
2017-06-02T00:48:31.861Z,60.83
2017-06-02T00:49:12.736Z,60.8
2017-06-02T00:49:53.627Z,61.08
2017-06-02T00:50:34.530Z,61.47
2017-06-02T00:51:15.415Z,61.28
2017-06-02T00:51:56.299Z,61.37
2017-06-02T00:52:37.210Z,60.93
2017-06-02T00:53:18.119Z,61.08
2017-06-02T00:53:59.025Z,61.37
2017-06-02T00:54:39.911Z,60.99
2017-06-02T00:55:20.807Z,60.22
2017-06-02T00:56:01.696Z,60.41
2017-06-02T00:56:42.582Z,59.65
2017-06-02T00:57:23.475Z,59.94
2017-06-02T00:58:04.375Z,60.99
2017-06-02T00:58:45.268Z,61.94
2017-06-02T00:59:26.153Z,62.71
2017-06-02T01:00:07.050Z,62.52
2017-06-02T01:00:47.942Z,62.62
2017-06-02T01:01:28.837Z,62.14
2017-06-02T01:02:09.738Z,61.66
2017-06-02T01:02:50.629Z,62.14
2017-06-02T01:03:31.526Z,62.9
2017-06-02T01:04:12.419Z,62.71
2017-06-02T01:04:53.324Z,62.14
2017-06-02T01:05:34.224Z,62.62
2017-06-02T01:06:15.117Z,62.71
2017-06-02T01:06:56.016Z,63
2017-06-02T01:07:36.915Z,63.57
2017-06-02T01:08:17.806Z,64.15
2017-06-02T01:08:58.695Z,64.43
2017-06-02T01:09:39.590Z,64.25
2017-06-02T01:10:20.483Z,64.15
2017-06-02T01:11:01.383Z,64.53
2017-06-02T01:11:42.278Z,64.43
2017-06-02T01:12:23.166Z,64.59
2017-06-02T01:13:04.078Z,64.69
2017-06-02T01:13:44.942Z,64.4
2017-06-02T01:14:25.813Z,64.5
2017-06-02T01:15:53.894Z,64.79
2017-06-02T01:16:34.781Z,64.69
2017-06-02T01:17:15.671Z,64.79
2017-06-02T01:17:56.565Z,65.36
2017-06-02T01:18:37.456Z,65.65
2017-06-02T01:19:18.349Z,65.74
2017-06-02T01:19:59.240Z,65.55
2017-06-02T01:20:40.131Z,66.22
2017-06-02T01:21:21.031Z,65.36
2017-06-02T01:22:01.908Z,65.65
2017-06-02T01:22:42.803Z,65.74
2017-06-02T01:23:23.699Z,65.65
2017-06-02T01:24:04.581Z,65.65
2017-06-02T01:24:45.479Z,65.36
2017-06-02T01:25:26.361Z,64.88
2017-06-02T01:26:07.247Z,64.31
2017-06-02T01:26:48.132Z,64.31
2017-06-02T01:27:29.018Z,64.59
2017-06-02T01:28:09.917Z,66.13
2017-06-02T01:28:50.806Z,66.03
2017-06-02T01:29:31.683Z,65.94
2017-06-02T01:30:12.576Z,67.08
2017-06-02T01:30:53.470Z,66.13
2017-06-02T01:31:34.349Z,66.61
2017-06-02T01:32:15.249Z,66.32
2017-06-02T01:32:56.139Z,67.37
2017-06-02T01:33:37.030Z,67.27
2017-06-02T01:34:17.935Z,67.18
2017-06-02T01:34:58.820Z,67.18
2017-06-02T01:35:39.700Z,67.47
2017-06-02T01:36:20.599Z,67.56
2017-06-02T01:37:01.485Z,68.2
2017-06-02T01:37:42.359Z,67.85
2017-06-02T01:38:23.252Z,67.91
2017-06-02T01:39:04.161Z,68.68
2017-06-02T01:39:45.034Z,69.25
2017-06-02T01:40:25.912Z,68.68
2017-06-02T01:41:06.806Z,68.77
2017-06-02T01:41:47.693Z,68.68
2017-06-02T01:42:28.567Z,68.87
2017-06-02T01:43:09.443Z,69.44
2017-06-02T01:43:50.342Z,69.15
2017-06-02T01:44:31.233Z,69.06
2017-06-02T01:45:12.121Z,69.44
2017-06-02T01:45:53.016Z,69.25
2017-06-02T01:46:33.913Z,69.44
2017-06-02T01:47:14.799Z,69.64
2017-06-02T01:47:55.694Z,68.96
2017-06-02T01:48:36.589Z,69.35
2017-06-02T01:49:17.476Z,69.06
2017-06-02T01:49:58.372Z,69.25
2017-06-02T01:50:39.265Z,69.44
2017-06-02T01:51:20.135Z,68.87
2017-06-02T01:52:01.010Z,69.25
2017-06-02T01:52:41.899Z,69.44
2017-06-02T01:53:22.797Z,69.35
2017-06-02T01:54:03.674Z,69.73
2017-06-02T01:54:44.543Z,70.5
2017-06-02T01:55:25.440Z,70.5
2017-06-02T01:56:06.330Z,70.11
2017-06-02T01:56:47.204Z,69.64
2017-06-02T01:57:28.080Z,69.92
2017-06-02T01:58:08.973Z,70.78
2017-06-02T01:58:49.864Z,70.97
2017-06-02T01:59:30.753Z,70.68
2017-06-02T02:00:11.650Z,70.11
2017-06-02T02:00:52.584Z,70.21
2017-06-02T02:02:20.659Z,70.3
2017-06-02T02:03:01.544Z,70.01
2017-06-02T02:03:42.430Z,70.3
2017-06-02T02:04:23.313Z,70.01
2017-06-02T02:05:04.221Z,70.5
2017-06-02T02:05:45.110Z,70.3
2017-06-02T02:06:25.990Z,70.87
2017-06-02T02:07:06.881Z,71.07
2017-06-02T02:07:47.778Z,70.68
2017-06-02T02:08:28.664Z,70.87
2017-06-02T02:09:09.555Z,71.16
2017-06-02T02:09:50.438Z,71.26
2017-06-02T02:10:31.322Z,71.26
2017-06-02T02:11:12.210Z,71.07
2017-06-02T02:11:53.110Z,71.36
2017-06-02T02:12:33.986Z,71.83
2017-06-02T02:13:14.877Z,71.89
2017-06-02T02:13:55.773Z,72.22
2017-06-02T02:14:36.683Z,71.64
2017-06-02T02:15:17.585Z,71.55
2017-06-02T02:15:58.471Z,72.12
2017-06-02T02:16:39.347Z,71.45
2017-06-02T02:17:20.231Z,71.64
2017-06-02T02:18:01.124Z,71.83
2017-06-02T02:18:42.004Z,71.73
2017-06-02T02:19:22.893Z,71.7
2017-06-02T02:20:03.768Z,71.55
2017-06-02T02:20:44.648Z,71.55
2017-06-02T02:21:25.523Z,71.64
2017-06-02T02:22:06.411Z,71.61
2017-06-02T02:22:47.267Z,71.51
2017-06-02T02:23:28.155Z,71.51
2017-06-02T02:24:09.061Z,71.42
2017-06-02T02:24:49.935Z,71.51
2017-06-02T02:25:30.813Z,72.18
2017-06-02T02:26:11.718Z,71.51
2017-06-02T02:26:52.599Z,71.32
2017-06-02T02:27:33.503Z,71.45
2017-06-02T02:28:14.395Z,71.26
2017-06-02T02:28:55.280Z,71.13
2017-06-02T02:29:36.176Z,71.26
2017-06-02T02:30:17.070Z,71.36
2017-06-02T02:30:57.958Z,71.36
2017-06-02T02:31:38.838Z,71.36
2017-06-02T02:32:19.727Z,71.64
2017-06-02T02:33:00.623Z,70.87
2017-06-02T02:33:41.505Z,70.97
2017-06-02T02:34:22.397Z,71.51
2017-06-02T02:35:03.286Z,71.55
2017-06-02T02:35:44.172Z,71.61
2017-06-02T02:36:25.052Z,71.51
2017-06-02T02:37:05.963Z,71.61
2017-06-02T02:37:46.848Z,71.51
2017-06-02T02:38:27.733Z,71.61
2017-06-02T02:39:08.627Z,71.8
2017-06-02T02:39:49.509Z,71.61
2017-06-02T02:40:30.396Z,71.51
2017-06-02T02:41:11.280Z,71.99
2017-06-02T02:41:52.171Z,71.61
2017-06-02T02:42:33.053Z,71.99
2017-06-02T02:43:13.937Z,72.37
2017-06-02T02:43:54.831Z,72.18
2017-06-02T02:44:35.726Z,72.08
2017-06-02T02:45:16.616Z,71.99
2017-06-02T02:45:57.515Z,72.56
2017-06-02T02:46:38.453Z,71.99
2017-06-02T02:47:19.293Z,72.18
2017-06-02T02:48:00.187Z,72.56
2017-06-02T02:48:41.092Z,73.52
2017-06-02T02:49:21.967Z,72.94
2017-06-02T02:50:02.880Z,73.14
2017-06-02T02:50:43.744Z,72.94
2017-06-02T02:51:24.631Z,73.52
2017-06-02T02:52:05.510Z,73.23
2017-06-02T02:52:46.429Z,73.23
2017-06-02T02:53:27.295Z,73.43
2017-06-02T02:54:08.200Z,73.52
2017-06-02T02:54:49.100Z,73.33
2017-06-02T02:55:29.973Z,73.9
2017-06-02T02:56:10.866Z,73.43
2017-06-02T02:56:51.758Z,73.43
2017-06-02T02:57:32.652Z,73.52
2017-06-02T02:58:13.533Z,73.04
2017-06-02T02:58:54.421Z,73.61
2017-06-02T02:59:35.314Z,73.71
2017-06-02T03:00:16.196Z,73.23
2017-06-02T03:00:57.077Z,73.52
2017-06-02T03:01:37.969Z,73.8
2017-06-02T03:02:18.848Z,73.8
2017-06-02T03:02:59.754Z,73.61
2017-06-02T03:03:40.643Z,73.99
2017-06-02T03:04:21.535Z,74.66
2017-06-02T03:05:02.433Z,74.57
2017-06-02T03:05:43.330Z,74.57
2017-06-02T03:06:24.202Z,74.48
2017-06-02T03:07:05.090Z,74.57
2017-06-02T03:07:45.975Z,74.57
2017-06-02T03:08:26.872Z,74.57
2017-06-02T03:09:07.760Z,74.48
2017-06-02T03:09:48.651Z,74.38
2017-06-02T03:10:29.542Z,74.48
2017-06-02T03:11:10.426Z,74.28
2017-06-02T03:11:51.329Z,74.48
2017-06-02T03:12:32.205Z,74.48
2017-06-02T03:13:13.092Z,74.48
2017-06-02T03:13:53.988Z,74.28
2017-06-02T03:14:34.883Z,74.38
2017-06-02T03:15:15.763Z,74.57
2017-06-02T03:15:56.647Z,74.28
2017-06-02T03:16:37.530Z,74.76
2017-06-02T03:17:18.416Z,74.85
2017-06-02T03:17:59.319Z,74.76
2017-06-02T03:18:40.205Z,74.95
2017-06-02T03:19:21.091Z,74.95
2017-06-02T03:20:01.974Z,74.85
2017-06-02T03:20:42.880Z,74.85
2017-06-02T03:21:23.762Z,75.34
2017-06-02T03:22:04.643Z,75.24
2017-06-02T03:22:45.524Z,74.95
2017-06-02T03:23:26.416Z,75.62
2017-06-02T03:24:07.297Z,75.24
2017-06-02T03:24:48.195Z,75.43
2017-06-02T03:25:29.097Z,75.52
2017-06-02T03:26:09.986Z,75.24
2017-06-02T03:26:50.868Z,75.14
2017-06-02T03:27:31.779Z,74.95
2017-06-02T03:28:12.680Z,75.24
2017-06-02T03:28:53.562Z,74.95
2017-06-02T03:30:52.320Z,75.62
2017-06-02T03:31:33.209Z,75.43
2017-06-02T03:32:14.089Z,75.52
2017-06-02T03:32:54.988Z,75.43
2017-06-02T03:33:35.881Z,75.2
2017-06-02T03:34:16.767Z,75.78
2017-06-02T03:34:57.651Z,75.78
2017-06-02T03:35:38.535Z,75.78
2017-06-02T03:36:19.414Z,76.06
2017-06-02T03:37:00.305Z,75.87
2017-06-02T03:37:41.197Z,76.25
2017-06-02T03:38:22.092Z,75.87
2017-06-02T03:39:02.967Z,76.16
2017-06-02T03:39:43.857Z,76.25
2017-06-02T03:40:24.742Z,76.16
2017-06-02T03:41:05.621Z,76.64
2017-06-02T03:41:46.510Z,76.35
2017-06-02T03:42:27.409Z,76.64
2017-06-02T03:43:08.303Z,76.54
2017-06-02T03:43:49.183Z,76.45
2017-06-02T03:44:30.071Z,76.64
2017-06-02T03:45:10.954Z,76.64
2017-06-02T03:45:51.832Z,76.64
2017-06-02T03:46:32.736Z,76.45
2017-06-02T03:47:13.601Z,76.25
2017-06-02T03:47:54.487Z,76.64
2017-06-02T03:48:35.368Z,76.25
2017-06-02T03:49:16.262Z,76.16
2017-06-02T03:49:57.153Z,76.45
2017-06-02T03:50:38.041Z,76.73
2017-06-02T03:51:18.956Z,76.73
2017-06-02T03:51:59.846Z,76.45
2017-06-02T03:52:40.740Z,76.25
2017-06-02T03:53:21.627Z,76.35
2017-06-02T03:54:02.513Z,76.64
2017-06-02T03:54:43.402Z,76.54
2017-06-02T03:55:24.287Z,76.64
2017-06-02T03:56:05.166Z,76.54
2017-06-02T03:56:46.170Z,76.64
2017-06-02T03:57:26.960Z,76.54
2017-06-02T03:58:07.845Z,76.64
2017-06-02T03:58:48.732Z,76.54
2017-06-02T03:59:29.614Z,76.35
2017-06-02T04:00:10.508Z,76.73
2017-06-02T04:00:51.425Z,76.54
2017-06-02T04:01:32.318Z,76.54
2017-06-02T04:02:13.213Z,76.54
2017-06-02T04:02:54.107Z,76.54
2017-06-02T04:03:35.000Z,77.3
2017-06-02T04:04:15.912Z,76.73
2017-06-02T04:04:56.826Z,76.96
2017-06-02T04:05:37.710Z,76.54
2017-06-02T04:06:18.598Z,76.73
2017-06-02T04:06:59.491Z,76.82
2017-06-02T04:07:40.388Z,76.92
2017-06-02T04:08:21.270Z,77.11
2017-06-02T04:09:02.163Z,76.92
2017-06-02T04:09:43.060Z,76.54
2017-06-02T04:10:23.946Z,77.11
2017-06-02T04:11:04.828Z,77.01
2017-06-02T04:11:45.717Z,77.11
2017-06-02T04:12:26.603Z,77.21
2017-06-02T04:13:07.492Z,77.69
2017-06-02T04:13:48.398Z,77.3
2017-06-02T04:14:29.276Z,77.5
2017-06-02T04:15:10.151Z,77.4
2017-06-02T04:15:51.041Z,77.5
2017-06-02T04:16:31.929Z,77.3
2017-06-02T04:17:12.835Z,77.4
2017-06-02T04:17:53.727Z,77.69
2017-06-02T04:18:34.613Z,77.21
2017-06-02T04:19:15.484Z,77.69
2017-06-02T04:19:56.387Z,77.63
2017-06-02T04:20:37.272Z,77.4
2017-06-02T04:21:18.185Z,77.59
2017-06-02T04:21:59.063Z,77.44
2017-06-02T04:22:39.954Z,77.72
2017-06-02T04:23:20.897Z,78.01
2017-06-02T04:24:01.783Z,77.34
2017-06-02T04:24:42.663Z,77.15
2017-06-02T04:25:23.580Z,77.34
2017-06-02T04:26:04.443Z,77.63
2017-06-02T04:26:45.324Z,77.15
2017-06-02T04:27:26.207Z,76.96
2017-06-02T04:28:07.096Z,77.25
2017-06-02T04:28:47.994Z,77.34
2017-06-02T04:29:28.861Z,77.25
2017-06-02T04:30:09.737Z,77.44
2017-06-02T04:30:50.626Z,77.34
2017-06-02T04:31:31.517Z,76.67
2017-06-02T04:32:12.395Z,76.77
2017-06-02T04:32:53.285Z,77.15
2017-06-02T04:33:34.202Z,77.06
2017-06-02T04:34:15.087Z,76.67
2017-06-02T04:34:55.974Z,76.77
2017-06-02T04:35:36.853Z,76.77
2017-06-02T04:36:17.738Z,76.39
2017-06-02T04:36:58.617Z,76.2
2017-06-02T04:37:39.515Z,76.39
2017-06-02T04:38:20.421Z,75.81
2017-06-02T04:39:01.297Z,76.29
2017-06-02T04:39:42.194Z,76.1
2017-06-02T04:40:23.081Z,75.62
2017-06-02T04:41:03.980Z,75.76
2017-06-02T04:41:44.869Z,75.47
2017-06-02T04:42:25.781Z,75.37
2017-06-02T04:43:06.687Z,75.56
2017-06-02T04:43:47.582Z,75.95
2017-06-02T04:44:28.473Z,75.76
2017-06-02T04:45:09.361Z,76.42
2017-06-02T04:45:50.248Z,75.56
2017-06-02T04:46:31.129Z,75.76
2017-06-02T04:47:12.026Z,75.76
2017-06-02T04:47:52.924Z,75.18
2017-06-02T04:48:33.803Z,74.9
2017-06-02T04:49:14.695Z,75.09
2017-06-02T04:49:55.577Z,74.9
2017-06-02T04:50:36.463Z,74.41
2017-06-02T04:51:17.394Z,74.22
2017-06-02T04:51:58.277Z,74.51
2017-06-02T04:52:39.163Z,74.61
2017-06-02T04:53:20.049Z,73.94
2017-06-02T04:54:00.942Z,73.08
2017-06-02T04:54:41.832Z,72.54
2017-06-02T04:55:22.730Z,72.06
2017-06-02T04:56:03.635Z,71.58
2017-06-02T04:56:44.523Z,72.34
2017-06-02T04:57:25.404Z,72.73
2017-06-02T04:58:06.302Z,72.69
2017-06-02T04:58:47.196Z,72.73
2017-06-02T04:59:28.078Z,73.17
2017-06-02T05:00:08.961Z,72.73
2017-06-02T05:00:49.847Z,72.06
2017-06-02T05:01:30.736Z,71.58
2017-06-02T05:02:11.636Z,71.77
2017-06-02T05:02:52.528Z,71.48
2017-06-02T05:03:33.417Z,71.11
2017-06-02T05:04:14.310Z,71.39
2017-06-02T05:04:55.245Z,71.87
2017-06-02T05:05:36.134Z,71.58
2017-06-02T05:06:17.025Z,70.91
2017-06-02T05:06:57.931Z,71.11
2017-06-02T05:07:38.828Z,70.72
2017-06-02T05:08:19.718Z,70.15
2017-06-02T05:09:00.618Z,69.7
2017-06-02T05:09:41.503Z,70.09
2017-06-02T05:10:22.389Z,69.76
2017-06-02T05:11:03.267Z,69.6
2017-06-02T05:11:44.158Z,69.03
2017-06-02T05:12:25.058Z,68.74
2017-06-02T05:13:05.950Z,68.62
2017-06-02T05:13:46.880Z,69.38
2017-06-02T05:14:27.762Z,69.38
2017-06-02T05:15:08.646Z,69.86
2017-06-02T05:15:49.534Z,69.38
2017-06-02T05:16:30.412Z,69.86
2017-06-02T05:17:11.299Z,69.76
2017-06-02T05:17:52.207Z,69.42
2017-06-02T05:18:33.097Z,69.42
2017-06-02T05:19:13.997Z,69.67
2017-06-02T05:19:54.881Z,69.32
2017-06-02T05:20:35.773Z,69.6
2017-06-02T05:21:16.675Z,69.03
2017-06-02T05:21:57.561Z,68.84
2017-06-02T05:22:38.450Z,68.74
2017-06-02T05:23:19.348Z,68.46
2017-06-02T05:24:00.236Z,68.36
2017-06-02T05:24:41.125Z,68.4
2017-06-02T05:25:22.017Z,67.44
2017-06-02T05:26:02.912Z,68.21
2017-06-02T05:26:43.813Z,67.82
2017-06-02T05:27:24.706Z,67.34
2017-06-02T05:28:05.585Z,67.34
2017-06-02T05:28:46.477Z,66.96
2017-06-02T05:29:27.377Z,66.09
2017-06-02T05:30:08.266Z,66.09
2017-06-02T05:30:49.154Z,65.94
2017-06-02T05:31:30.051Z,65.81
2017-06-02T05:32:10.942Z,64.85
2017-06-02T05:32:51.831Z,64.89
2017-06-02T05:33:32.720Z,65.36
2017-06-02T05:34:13.613Z,65.75
2017-06-02T05:34:54.507Z,65.65
2017-06-02T05:35:35.411Z,64.89
2017-06-02T05:36:16.297Z,64.59
2017-06-02T05:36:57.202Z,64.31
2017-06-02T05:37:38.083Z,63.73
2017-06-02T05:38:18.976Z,63.06
2017-06-02T05:38:59.866Z,63.26
2017-06-02T05:39:40.760Z,63.45
2017-06-02T05:40:21.643Z,63.92
2017-06-02T05:41:02.535Z,63.92
2017-06-02T05:41:43.431Z,64.31
2017-06-02T05:42:24.343Z,65.08
2017-06-02T05:43:05.247Z,64.79
2017-06-02T05:43:46.140Z,65.17
2017-06-02T05:44:27.067Z,65.08
2017-06-02T05:45:07.944Z,64.82
2017-06-02T05:45:48.845Z,64.34
2017-06-02T05:46:29.737Z,63.76
2017-06-02T05:47:10.636Z,63.57
2017-06-02T05:47:51.521Z,63.48
2017-06-02T05:48:32.395Z,63.09
2017-06-02T05:49:13.283Z,62.52
2017-06-02T05:49:54.169Z,62.9
2017-06-02T05:50:35.063Z,63.38
2017-06-02T05:51:15.958Z,63.29
2017-06-02T05:51:56.840Z,63.38
2017-06-02T05:52:37.728Z,62.62
2017-06-02T05:53:18.629Z,62.26
2017-06-02T05:53:59.518Z,61.78
2017-06-02T05:54:40.405Z,62.16
2017-06-02T05:55:21.301Z,62.26
2017-06-02T05:56:02.182Z,61.98
2017-06-02T05:56:43.076Z,62.36
2017-06-02T05:57:23.963Z,61.78
2017-06-02T05:58:04.843Z,61.88
2017-06-02T05:58:45.731Z,61.78
2017-06-02T05:59:26.677Z,62.16
2017-06-02T06:00:07.576Z,63.12
2017-06-02T06:00:48.472Z,62.74
2017-06-02T06:01:29.361Z,62.07
2017-06-02T06:02:10.261Z,61.05
2017-06-02T06:02:51.147Z,60.92
2017-06-02T06:03:32.041Z,60.08
2017-06-02T06:04:12.930Z,59.89
2017-06-02T06:04:53.807Z,59.22
2017-06-02T06:05:34.715Z,59.22
2017-06-02T06:06:15.594Z,58.96
2017-06-02T06:06:56.471Z,59.16
2017-06-02T06:07:37.371Z,58.96
2017-06-02T06:08:18.282Z,58.77
2017-06-02T06:08:59.421Z,58.42
2017-06-02T06:09:40.093Z,56.88
2017-06-02T06:10:20.994Z,55.94
2017-06-02T06:11:01.893Z,54.63
2017-06-02T06:11:42.771Z,53.69
2017-06-02T06:12:23.703Z,51.98
2017-06-02T06:13:57.014Z,50.4
2017-06-02T06:14:37.892Z,49.75
2017-06-02T06:15:18.781Z,48.71
2017-06-02T06:15:59.655Z,48.08
2017-06-02T06:17:38.061Z,44.92
2017-06-02T06:18:18.959Z,44.53
2017-06-02T06:18:59.853Z,43.71
2017-06-02T06:19:40.797Z,42.96
2017-06-02T06:20:21.656Z,41.72
2017-06-02T06:21:02.557Z,39.97
2017-06-02T06:21:43.463Z,41.54
2017-06-02T06:22:24.357Z,42.33
2017-06-02T06:23:05.298Z,41.31
2017-06-02T06:23:46.187Z,39.67
2017-06-02T06:24:27.093Z,39.57
2017-06-02T06:25:07.995Z,39.76
2017-06-02T06:25:48.902Z,39.97
2017-06-02T06:26:29.787Z,39.22
2017-06-02T06:27:10.685Z,38.73
2017-06-02T06:27:51.582Z,38.85
2017-06-02T06:28:32.460Z,38.09
2017-06-02T06:29:13.645Z,36.64
2017-06-02T06:29:54.540Z,36.93
2017-06-02T06:30:35.450Z,36.64
2017-06-02T06:31:16.348Z,36.93
2017-06-02T06:31:57.236Z,36.46
2017-06-02T06:32:38.146Z,35.8
2017-06-02T06:33:19.056Z,34.85
2017-06-02T06:33:59.956Z,34.95
2017-06-02T06:34:40.859Z,34.81
2017-06-02T06:35:21.760Z,34.62
2017-06-02T06:36:02.674Z,35.24
2017-06-02T06:36:43.586Z,34.97
2017-06-02T06:37:24.485Z,33.91
2017-06-02T06:38:05.390Z,31.5
2017-06-02T06:38:46.294Z,31.87
2017-06-02T06:39:27.205Z,31.1
2017-06-02T06:40:08.110Z,31
2017-06-02T06:40:49.042Z,31.38
2017-06-02T06:41:29.946Z,31
2017-06-02T06:42:10.862Z,31.1
2017-06-02T06:44:05.484Z,30.71
2017-06-02T06:44:46.387Z,31.19
2017-06-02T06:45:27.284Z,32.13
2017-06-02T06:46:08.193Z,32.81
2017-06-02T06:46:49.095Z,33.38
2017-06-02T06:47:30.032Z,33.76
2017-06-02T06:48:10.934Z,34.35
2017-06-02T06:48:51.848Z,34.27
2017-06-02T06:49:32.743Z,33.02
2017-06-02T06:50:13.668Z,32.17
2017-06-02T06:50:54.575Z,31.6
2017-06-02T06:51:35.482Z,30.74
2017-06-02T06:52:16.394Z,30.25
2017-06-02T06:52:57.301Z,29.66
2017-06-02T06:53:38.193Z,30.15
2017-06-02T06:54:19.097Z,29.85
2017-06-02T06:55:00.001Z,30.32
2017-06-02T06:55:40.910Z,30.59
2017-06-02T06:56:21.811Z,31.74
2017-06-02T06:57:02.724Z,31.84
2017-06-02T06:57:43.629Z,31.76
2017-06-02T06:58:24.567Z,31.37
2017-06-02T06:59:05.486Z,31.38
2017-06-02T06:59:46.405Z,31.4
2017-06-02T07:00:27.305Z,31
2017-06-02T07:01:08.222Z,31.13
2017-06-02T07:01:49.113Z,30.36
2017-06-02T07:02:30.022Z,29.29
2017-06-02T07:03:10.911Z,28.59
2017-06-02T07:03:51.824Z,29.16
2017-06-02T07:04:32.731Z,29.55
2017-06-02T07:05:13.649Z,29.85
2017-06-02T07:05:54.556Z,30.32
2017-06-02T07:06:35.463Z,30.22
2017-06-02T07:07:16.363Z,30.12
2017-06-02T07:07:57.276Z,30.61
2017-06-02T07:08:38.179Z,31
2017-06-02T07:09:19.096Z,31.29
2017-06-02T07:10:00.002Z,31.01
2017-06-02T07:10:40.937Z,30.43
2017-06-02T07:11:21.805Z,31.13
2017-06-02T07:12:02.718Z,30.54
2017-06-02T07:12:43.612Z,29.69
2017-06-02T07:13:24.515Z,29.69
2017-06-02T07:14:05.411Z,29.21
2017-06-02T07:14:46.319Z,29.68
2017-06-02T07:15:27.213Z,28.72
2017-06-02T07:16:08.124Z,28.64
2017-06-02T07:16:49.011Z,27.97
2017-06-02T07:17:29.954Z,28.69
2017-06-02T07:18:10.862Z,28.53
2017-06-02T07:18:51.764Z,27.94
2017-06-02T07:19:32.654Z,27.36
2017-06-02T07:20:13.589Z,28.04
2017-06-02T07:20:54.484Z,27.86
2017-06-02T07:21:35.391Z,27.66
2017-06-02T07:22:16.288Z,27.58
2017-06-02T07:22:57.208Z,27.11
2017-06-02T07:23:38.095Z,25.84
2017-06-02T07:24:19.026Z,26.98
2017-06-02T07:24:59.920Z,27.89
2017-06-02T07:25:40.846Z,28.69
2017-06-02T07:26:21.716Z,28.13
2017-06-02T07:27:02.619Z,27.66
2017-06-02T07:27:43.534Z,26.94
2017-06-02T07:28:24.440Z,26.55
2017-06-02T07:29:05.351Z,29.61
2017-06-02T07:29:46.253Z,28.54
2017-06-02T07:30:27.167Z,30.58
2017-06-02T07:31:08.068Z,32.12
2017-06-02T07:31:48.987Z,33.07
2017-06-02T07:32:29.911Z,32.02
2017-06-02T07:33:10.825Z,31.56
2017-06-02T07:33:51.724Z,31.07
2017-06-02T07:34:32.630Z,31.36
2017-06-02T07:35:13.533Z,31.29
2017-06-02T07:35:54.475Z,30.35
2017-06-02T07:36:35.372Z,29.62
2017-06-02T07:37:16.307Z,27.79
2017-06-02T07:37:57.211Z,26.75
2017-06-02T07:38:38.128Z,25.87
2017-06-02T07:39:19.070Z,25.86
2017-06-02T07:39:59.983Z,25.86
2017-06-02T07:40:40.887Z,26.81
2017-06-02T07:41:21.793Z,27.47
2017-06-02T07:42:02.697Z,28.4
2017-06-02T07:42:43.607Z,30.2
2017-06-02T07:43:24.513Z,31.23
2017-06-02T07:44:05.420Z,32.87
2017-06-02T07:44:46.336Z,33.12
2017-06-02T07:45:27.274Z,33.37
2017-06-02T07:46:08.158Z,31.18
2017-06-02T07:46:49.066Z,30.34
2017-06-02T07:47:29.961Z,30.08
2017-06-02T07:48:10.876Z,28.05
2017-06-02T07:48:51.775Z,28.13
2017-06-02T07:49:32.729Z,28.32
2017-06-02T07:50:13.578Z,28.23
2017-06-02T07:50:54.491Z,28.87
2017-06-02T07:51:35.418Z,30.32
2017-06-02T07:52:16.332Z,30.79
2017-06-02T07:52:57.245Z,31.63
2017-06-02T07:53:38.147Z,32.17
2017-06-02T07:54:19.050Z,30.73
2017-06-02T07:54:59.983Z,30.95
2017-06-02T07:55:40.861Z,29.91
2017-06-02T07:56:21.800Z,28.09
2017-06-02T07:57:02.712Z,25.29
2017-06-02T07:57:43.627Z,24.8
2017-06-02T07:58:24.536Z,24.68
2017-06-02T07:59:05.456Z,26
2017-06-02T07:59:46.365Z,26.56
2017-06-02T08:00:27.273Z,27.79
2017-06-02T08:01:08.184Z,28.65
2017-06-02T08:01:49.094Z,29.99
2017-06-02T08:02:30.010Z,30.86
2017-06-02T08:03:10.920Z,30.78
2017-06-02T08:03:51.841Z,29.36
2017-06-02T08:04:32.741Z,28.41
2017-06-02T08:05:13.653Z,27.96
2017-06-02T08:05:54.557Z,27.11
2017-06-02T08:06:35.500Z,26.94
2017-06-02T08:07:16.376Z,25.81
2017-06-02T08:07:57.285Z,27.89
2017-06-02T08:08:38.191Z,30.17
2017-06-02T08:09:19.113Z,30.63
2017-06-02T08:10:00.012Z,30.65
2017-06-02T08:10:40.932Z,30.65
2017-06-02T08:11:21.839Z,30.57
2017-06-02T08:12:02.764Z,30.57
2017-06-02T08:12:43.669Z,30.83
2017-06-02T08:13:24.586Z,30.44
2017-06-02T08:14:05.521Z,30.96
2017-06-02T08:14:46.443Z,29.43
2017-06-02T08:15:27.352Z,29.05
2017-06-02T08:16:08.276Z,29.13
2017-06-02T08:16:49.182Z,28.92
2017-06-02T08:17:30.091Z,28.75
2017-06-02T08:18:11.018Z,27.92
2017-06-02T08:18:51.928Z,26.67
2017-06-02T08:19:32.839Z,26.89
2017-06-02T08:20:13.759Z,25.93
2017-06-02T08:20:54.656Z,26.74
2017-06-02T08:21:35.566Z,27.45
2017-06-02T08:22:16.477Z,26.01
2017-06-02T08:22:57.396Z,25.62
2017-06-02T08:23:38.297Z,25.54
2017-06-02T08:24:19.214Z,24.49
2017-06-02T08:25:00.114Z,25.24
2017-06-02T08:25:41.028Z,24.96
2017-06-02T08:26:21.934Z,25.53
2017-06-02T08:27:02.855Z,24.79
2017-06-02T08:27:43.787Z,23.73
2017-06-02T08:28:24.667Z,21.89
2017-06-02T08:29:05.592Z,21.5
2017-06-02T08:29:46.538Z,22.36
2017-06-02T08:30:27.436Z,23.58
2017-06-02T08:31:08.352Z,25.2
2017-06-02T08:31:49.265Z,25.51
2017-06-02T08:32:30.171Z,25.14
2017-06-02T08:33:11.111Z,24.1
2017-06-02T08:33:52.024Z,22.86
2017-06-02T08:34:32.925Z,22.19
2017-06-02T08:35:13.842Z,22.2
2017-06-02T08:35:54.759Z,20.56
2017-06-02T08:36:35.673Z,20.15
2017-06-02T08:38:34.556Z,19.51
2017-06-02T08:39:15.466Z,18.34
2017-06-02T08:39:56.390Z,18.54
2017-06-02T08:40:37.315Z,18.54
2017-06-02T08:41:18.246Z,19.31
2017-06-02T08:41:59.136Z,18.92
2017-06-02T08:42:40.043Z,20
2017-06-02T08:43:20.963Z,19.15
2017-06-02T08:44:01.873Z,18.37
2017-06-02T08:44:42.796Z,17.95
2017-06-02T08:45:23.710Z,21.09
2017-06-02T08:46:04.624Z,22.44
2017-06-02T08:46:45.545Z,23.2
2017-06-02T08:48:13.675Z,22.53
2017-06-02T08:48:54.587Z,22.82
2017-06-02T08:49:35.511Z,22.45
2017-06-02T08:50:16.499Z,22.52
2017-06-02T08:50:57.331Z,24.04
2017-06-02T08:51:38.255Z,24.73
2017-06-02T08:52:19.182Z,24.45
2017-06-02T08:53:00.103Z,24.16
2017-06-02T08:53:41.021Z,23.72
2017-06-02T08:54:21.934Z,21.88
2017-06-02T08:55:02.854Z,22.72
2017-06-02T08:55:43.789Z,23.76
2017-06-02T08:56:24.712Z,23.57